Schomberg (Sloan Valley View Farm Airfield)

METAR CYYZ TAF CYYZ
0 °C
°C
-
°C
1h
Età
17:08:48
LT
16:08
UTC
0 ft

1.000

2.000

3.000

4.000

5.000

OVC 4.000
VFR
<?= Yii::t('app', 'Wind direction') ?> <?= Yii::t('app', 'of'); ?>
250°
17:23
Tramonto
64%
Umidità
Taglio del vento
Chiuso/Neve
Raggio visivo RWY
Condizione della RWY
Visibilità verticale
Visibilità minima
CAVOK
Tendenza
Correzione
Rapporto speciale
30,13 inHg
QNH
METAR CYYZ 281500Z 25012KT 15SM OVC040 M00/M06 A3013 RMK SC8 SLP214
Copertura totale
8 kt
8 kt
11:00
VFR
12 kt
12:00
VFR
12 kt
13:00
VFR
12 kt
14:00
VFR
12 kt
15:00
VFR
10 kt
16:00
VFR
10 kt
17:00
VFR
10 kt
15 mi
Vista
4.000 ft
Base nuvolosa
12 kt
Vento
metar-taf.com/csv8

Metar-Taf.com

Decodificatore visivo

Noi e le terze parti seguiamo il tuo comportamento su internet con i cookie. Se continui, riteniamo che tu sia d'accordo con la nostra Politica sui cookie.